sensor_id;sensor_type;location;lat;lon;timestamp;temperature;humidity
2621;DHT22;1320;48.128;11.592;2023-12-07T09:10:37;5.70;99.90
2621;DHT22;1320;48.128;11.592;2023-12-07T09:13:02;5.90;99.90
2621;DHT22;1320;48.128;11.592;2023-12-07T09:15:28;6.30;99.90
2621;DHT22;1320;48.128;11.592;2023-12-07T09:17:54;6.50;99.90
2621;DHT22;1320;48.128;11.592;2023-12-07T09:20:20;6.80;99.90
2621;DHT22;1320;48.128;11.592;2023-12-07T09:22:46;7.10;99.90
2621;DHT22;1320;48.128;11.592;2023-12-07T09:25:12;7.30;99.90
2621;DHT22;1320;48.128;11.592;2023-12-07T09:27:39;7.50;99.90
2621;DHT22;1320;48.128;11.592;2023-12-07T09:30:09;7.70;99.90
2621;DHT22;1320;48.128;11.592;2023-12-07T09:32:42;7.90;99.90
2621;DHT22;1320;48.128;11.592;2023-12-07T09:37:44;8.50;99.90
2621;DHT22;1320;48.128;11.592;2023-12-07T09:40:17;8.70;99.90
2621;DHT22;1320;48.128;11.592;2023-12-07T09:42:44;8.90;99.90
2621;DHT22;1320;48.128;11.592;2023-12-07T09:45:10;8.90;99.90
2621;DHT22;1320;48.128;11.592;2023-12-07T09:47:37;8.90;99.90
2621;DHT22;1320;48.128;11.592;2023-12-07T09:50:07;8.70;99.90
2621;DHT22;1320;48.128;11.592;2023-12-07T09:52:34;8.50;99.90
2621;DHT22;1320;48.128;11.592;2023-12-07T09:55:02;8.40;99.90
2621;DHT22;1320;48.128;11.592;2023-12-07T09:57:28;8.20;98.80
2621;DHT22;1320;48.128;11.592;2023-12-07T09:59:55;8.00;97.20
2621;DHT22;1320;48.128;11.592;2023-12-07T10:02:22;7.80;96.70
2621;DHT22;1320;48.128;11.592;2023-12-07T10:05:02;7.60;96.20
2621;DHT22;1320;48.128;11.592;2023-12-07T10:07:39;7.50;95.20
2621;DHT22;1320;48.128;11.592;2023-12-07T10:10:05;7.20;94.80
2621;DHT22;1320;48.128;11.592;2023-12-07T10:12:31;7.00;95.10
2621;DHT22;1320;48.128;11.592;2023-12-07T10:15:12;6.90;94.80
2621;DHT22;1320;48.128;11.592;2023-12-07T10:17:49;6.70;95.50
2621;DHT22;1320;48.128;11.592;2023-12-07T10:20:22;6.70;94.90
2621;DHT22;1320;48.128;11.592;2023-12-07T10:23:04;6.60;94.90
2621;DHT22;1320;48.128;11.592;2023-12-07T10:25:32;6.60;94.70
2621;DHT22;1320;48.128;11.592;2023-12-07T10:27:58;6.60;95.90
2621;DHT22;1320;48.128;11.592;2023-12-07T10:30:24;6.50;95.40
2621;DHT22;1320;48.128;11.592;2023-12-07T10:32:51;6.60;95.70
2621;DHT22;1320;48.128;11.592;2023-12-07T10:35:18;6.60;95.20
2621;DHT22;1320;48.128;11.592;2023-12-07T10:37:45;6.50;95.30
2621;DHT22;1320;48.128;11.592;2023-12-07T10:40:12;6.50;95.50
2621;DHT22;1320;48.128;11.592;2023-12-07T10:42:41;6.50;95.60
2621;DHT22;1320;48.128;11.592;2023-12-07T10:45:07;6.50;95.50
2621;DHT22;1320;48.128;11.592;2023-12-07T10:47:37;6.60;96.30
2621;DHT22;1320;48.128;11.592;2023-12-07T10:50:07;6.70;97.00
2621;DHT22;1320;48.128;11.592;2023-12-07T10:52:55;6.80;97.50
2621;DHT22;1320;48.128;11.592;2023-12-07T10:55:28;6.80;97.90
2621;DHT22;1320;48.128;11.592;2023-12-07T10:57:55;6.90;97.80
2621;DHT22;1320;48.128;11.592;2023-12-07T11:00:22;7.00;98.00
2621;DHT22;1320;48.128;11.592;2023-12-07T11:02:53;7.00;97.60
2621;DHT22;1320;48.128;11.592;2023-12-07T11:13:08;8.20;93.10
2621;DHT22;1320;48.128;11.592;2023-12-07T11:15:36;8.30;93.30
2621;DHT22;1320;48.128;11.592;2023-12-07T11:18:02;8.50;91.50
2621;DHT22;1320;48.128;11.592;2023-12-07T11:20:44;8.60;91.90
2621;DHT22;1320;48.128;11.592;2023-12-07T11:23:11;8.70;91.50
2621;DHT22;1320;48.128;11.592;2023-12-07T11:28:10;8.90;90.00
2621;DHT22;1320;48.128;11.592;2023-12-07T11:33:06;9.30;89.50
2621;DHT22;1320;48.128;11.592;2023-12-07T11:38:27;9.40;86.50
2621;DHT22;1320;48.128;11.592;2023-12-07T11:40:54;9.40;88.00
2621;DHT22;1320;48.128;11.592;2023-12-07T11:45:59;9.50;88.00
2621;DHT22;1320;48.128;11.592;2023-12-07T11:48:25;9.50;88.30
2621;DHT22;1320;48.128;11.592;2023-12-07T11:51:05;9.50;87.50
2621;DHT22;1320;48.128;11.592;2023-12-07T11:53:37;9.50;89.30
2621;DHT22;1320;48.128;11.592;2023-12-07T11:56:10;9.60;90.10
2621;DHT22;1320;48.128;11.592;2023-12-07T11:58:37;9.70;90.50
2621;DHT22;1320;48.128;11.592;2023-12-07T12:01:04;9.80;90.20
2621;DHT22;1320;48.128;11.592;2023-12-07T12:03:31;9.80;90.50
2621;DHT22;1320;48.128;11.592;2023-12-07T12:06:01;9.90;90.40
2621;DHT22;1320;48.128;11.592;2023-12-07T12:10:54;10.10;90.20
2621;DHT22;1320;48.128;11.592;2023-12-07T12:13:27;10.20;89.10
2621;DHT22;1320;48.128;11.592;2023-12-07T12:15:53;10.20;89.70
2621;DHT22;1320;48.128;11.592;2023-12-07T12:18:19;10.20;88.90
2621;DHT22;1320;48.128;11.592;2023-12-07T12:20:46;10.30;90.40
2621;DHT22;1320;48.128;11.592;2023-12-07T12:23:11;10.40;89.70
2621;DHT22;1320;48.128;11.592;2023-12-07T12:28:05;10.50;99.90
2621;DHT22;1320;48.128;11.592;2023-12-07T12:35:27;10.90;99.90
2621;DHT22;1320;48.128;11.592;2023-12-07T12:37:52;10.80;81.70
2621;DHT22;1320;48.128;11.592;2023-12-07T12:40:22;10.60;83.30
2621;DHT22;1320;48.128;11.592;2023-12-07T12:42:49;10.50;84.20
2621;DHT22;1320;48.128;11.592;2023-12-07T12:45:16;10.50;84.10
2621;DHT22;1320;48.128;11.592;2023-12-07T12:47:44;10.60;84.60
2621;DHT22;1320;48.128;11.592;2023-12-07T12:50:12;10.60;84.50
2621;DHT22;1320;48.128;11.592;2023-12-07T12:52:40;10.70;86.10
2621;DHT22;1320;48.128;11.592;2023-12-07T12:55:10;10.80;86.40
2621;DHT22;1320;48.128;11.592;2023-12-07T12:57:36;10.80;86.70
2621;DHT22;1320;48.128;11.592;2023-12-07T13:00:02;10.90;86.20
2621;DHT22;1320;48.128;11.592;2023-12-07T13:02:28;10.90;87.50
2621;DHT22;1320;48.128;11.592;2023-12-07T13:04:54;11.10;87.10
2621;DHT22;1320;48.128;11.592;2023-12-07T13:07:21;11.10;87.90
2621;DHT22;1320;48.128;11.592;2023-12-07T13:09:50;11.20;87.20
2621;DHT22;1320;48.128;11.592;2023-12-07T13:12:16;11.30;87.80
2621;DHT22;1320;48.128;11.592;2023-12-07T13:14:42;11.20;87.30
2621;DHT22;1320;48.128;11.592;2023-12-07T13:17:07;11.00;87.10
2621;DHT22;1320;48.128;11.592;2023-12-07T13:19:33;10.60;88.20
2621;DHT22;1320;48.128;11.592;2023-12-07T13:22:00;10.50;87.30
2621;DHT22;1320;48.128;11.592;2023-12-07T13:24:26;10.20;86.70
2621;DHT22;1320;48.128;11.592;2023-12-07T13:26:52;10.00;86.50
2621;DHT22;1320;48.128;11.592;2023-12-07T13:29:17;9.60;88.10
2621;DHT22;1320;48.128;11.592;2023-12-07T13:31:43;9.30;88.90
2621;DHT22;1320;48.128;11.592;2023-12-07T13:34:09;8.90;88.80
2621;DHT22;1320;48.128;11.592;2023-12-07T13:36:34;8.70;89.60
2621;DHT22;1320;48.128;11.592;2023-12-07T13:39:01;8.40;90.00
2621;DHT22;1320;48.128;11.592;2023-12-07T13:41:30;8.30;90.40
2621;DHT22;1320;48.128;11.592;2023-12-07T13:43:55;8.10;90.70
2621;DHT22;1320;48.128;11.592;2023-12-07T13:46:21;7.90;91.10
2621;DHT22;1320;48.128;11.592;2023-12-07T13:48:47;7.70;91.10
2621;DHT22;1320;48.128;11.592;2023-12-07T13:51:16;7.60;91.60
2621;DHT22;1320;48.128;11.592;2023-12-07T13:53:42;7.40;92.10
2621;DHT22;1320;48.128;11.592;2023-12-07T14:01:04;7.10;91.40
2621;DHT22;1320;48.128;11.592;2023-12-07T14:03:30;7.00;92.00
2621;DHT22;1320;48.128;11.592;2023-12-07T14:05:56;6.90;92.00
2621;DHT22;1320;48.128;11.592;2023-12-07T14:10:51;6.70;92.30
2621;DHT22;1320;48.128;11.592;2023-12-07T14:15:43;6.50;92.10
2621;DHT22;1320;48.128;11.592;2023-12-07T14:18:09;6.50;92.30
2621;DHT22;1320;48.128;11.592;2023-12-07T14:20:35;6.50;92.20
2621;DHT22;1320;48.128;11.592;2023-12-07T14:23:00;6.40;92.30
2621;DHT22;1320;48.128;11.592;2023-12-07T14:25:30;6.30;92.80
2621;DHT22;1320;48.128;11.592;2023-12-07T14:27:55;6.20;92.70
2621;DHT22;1320;48.128;11.592;2023-12-07T14:30:21;6.10;93.10
2621;DHT22;1320;48.128;11.592;2023-12-07T14:32:48;6.10;92.90
2621;DHT22;1320;48.128;11.592;2023-12-07T14:35:18;6.10;93.10
2621;DHT22;1320;48.128;11.592;2023-12-07T14:37:44;6.10;93.30
2621;DHT22;1320;48.128;11.592;2023-12-07T14:40:10;6.00;93.40
2621;DHT22;1320;48.128;11.592;2023-12-07T14:42:36;6.00;93.40
2621;DHT22;1320;48.128;11.592;2023-12-07T14:47:30;5.80;93.60
2621;DHT22;1320;48.128;11.592;2023-12-07T14:49:55;5.70;93.80
2621;DHT22;1320;48.128;11.592;2023-12-07T14:52:21;5.70;93.90
2621;DHT22;1320;48.128;11.592;2023-12-07T14:54:47;5.60;94.00
2621;DHT22;1320;48.128;11.592;2023-12-07T14:57:13;5.60;94.30
2621;DHT22;1320;48.128;11.592;2023-12-07T14:59:38;5.50;94.40
2621;DHT22;1320;48.128;11.592;2023-12-07T15:02:04;5.40;94.50
2621;DHT22;1320;48.128;11.592;2023-12-07T15:04:30;5.40;94.70
2621;DHT22;1320;48.128;11.592;2023-12-07T15:06:56;5.30;94.90
2621;DHT22;1320;48.128;11.592;2023-12-07T15:09:22;5.20;95.00
2621;DHT22;1320;48.128;11.592;2023-12-07T15:11:48;5.20;95.20
2621;DHT22;1320;48.128;11.592;2023-12-07T15:14:13;5.20;95.20
2621;DHT22;1320;48.128;11.592;2023-12-07T15:16:39;5.10;95.30
2621;DHT22;1320;48.128;11.592;2023-12-07T15:19:05;5.10;95.40
2621;DHT22;1320;48.128;11.592;2023-12-07T15:21:31;5.00;95.60
2621;DHT22;1320;48.128;11.592;2023-12-07T15:23:58;5.00;95.70
2621;DHT22;1320;48.128;11.592;2023-12-07T15:26:24;4.90;95.90
2621;DHT22;1320;48.128;11.592;2023-12-07T15:28:50;4.90;96.00
2621;DHT22;1320;48.128;11.592;2023-12-07T15:31:16;4.80;96.30
2621;DHT22;1320;48.128;11.592;2023-12-07T15:33:41;4.80;96.50
2621;DHT22;1320;48.128;11.592;2023-12-07T15:38:33;4.70;96.00
2621;DHT22;1320;48.128;11.592;2023-12-07T15:40:59;4.60;96.50
2621;DHT22;1320;48.128;11.592;2023-12-07T15:43:28;4.60;96.50
2621;DHT22;1320;48.128;11.592;2023-12-07T15:45:54;4.60;96.70
2621;DHT22;1320;48.128;11.592;2023-12-07T15:48:19;4.60;96.80
2621;DHT22;1320;48.128;11.592;2023-12-07T15:50:47;4.50;96.90
2621;DHT22;1320;48.128;11.592;2023-12-07T15:53:13;4.50;97.00
2621;DHT22;1320;48.128;11.592;2023-12-07T15:55:39;4.60;97.30
2621;DHT22;1320;48.128;11.592;2023-12-07T15:58:05;4.50;97.30
2621;DHT22;1320;48.128;11.592;2023-12-07T16:00:31;4.50;97.40
2621;DHT22;1320;48.128;11.592;2023-12-07T16:02:57;4.40;97.50
2621;DHT22;1320;48.128;11.592;2023-12-07T16:05:22;4.40;97.50
2621;DHT22;1320;48.128;11.592;2023-12-07T16:07:48;4.40;97.70
2621;DHT22;1320;48.128;11.592;2023-12-07T16:10:14;4.30;97.70
2621;DHT22;1320;48.128;11.592;2023-12-07T16:12:39;4.30;98.00
2621;DHT22;1320;48.128;11.592;2023-12-07T16:15:05;4.30;98.50
2621;DHT22;1320;48.128;11.592;2023-12-07T16:17:32;4.20;98.50
2621;DHT22;1320;48.128;11.592;2023-12-07T16:19:57;4.20;99.00
2621;DHT22;1320;48.128;11.592;2023-12-07T16:22:23;4.20;99.40
2621;DHT22;1320;48.128;11.592;2023-12-07T16:24:50;4.10;99.70
2621;DHT22;1320;48.128;11.592;2023-12-07T16:27:17;4.10;99.90
2621;DHT22;1320;48.128;11.592;2023-12-07T16:29:49;4.10;99.90
2621;DHT22;1320;48.128;11.592;2023-12-07T16:32:14;4.10;99.90
2621;DHT22;1320;48.128;11.592;2023-12-07T16:34:41;4.10;99.90
2621;DHT22;1320;48.128;11.592;2023-12-07T16:37:06;4.10;99.90
2621;DHT22;1320;48.128;11.592;2023-12-07T16:39:33;4.10;99.90
2621;DHT22;1320;48.128;11.592;2023-12-07T16:41:59;4.00;99.90
2621;DHT22;1320;48.128;11.592;2023-12-07T16:44:24;4.10;99.90
2621;DHT22;1320;48.128;11.592;2023-12-07T16:46:51;4.00;99.90
2621;DHT22;1320;48.128;11.592;2023-12-07T16:51:44;3.80;99.90
2621;DHT22;1320;48.128;11.592;2023-12-07T16:54:10;3.80;99.90
2621;DHT22;1320;48.128;11.592;2023-12-07T16:59:02;3.60;99.90
2621;DHT22;1320;48.128;11.592;2023-12-07T17:03:54;3.40;99.90
2621;DHT22;1320;48.128;11.592;2023-12-07T17:06:19;3.40;99.90
2621;DHT22;1320;48.128;11.592;2023-12-07T17:08:45;3.30;99.90
2621;DHT22;1320;48.128;11.592;2023-12-07T17:11:11;3.30;99.90
2621;DHT22;1320;48.128;11.592;2023-12-07T17:13:37;3.20;99.90
2621;DHT22;1320;48.128;11.592;2023-12-07T17:16:03;3.10;99.90
2621;DHT22;1320;48.128;11.592;2023-12-07T17:18:29;3.10;99.90
2621;DHT22;1320;48.128;11.592;2023-12-07T17:20:55;3.00;99.90
2621;DHT22;1320;48.128;11.592;2023-12-07T17:23:21;3.00;99.90
2621;DHT22;1320;48.128;11.592;2023-12-07T17:25:46;2.90;99.90
2621;DHT22;1320;48.128;11.592;2023-12-07T17:28:12;2.90;99.90
2621;DHT22;1320;48.128;11.592;2023-12-07T17:30:38;2.90;99.90
2621;DHT22;1320;48.128;11.592;2023-12-07T17:33:03;2.80;99.90
2621;DHT22;1320;48.128;11.592;2023-12-07T17:35:29;2.80;99.90
2621;DHT22;1320;48.128;11.592;2023-12-07T17:37:54;2.80;99.90
2621;DHT22;1320;48.128;11.592;2023-12-07T17:40:20;2.70;99.90
2621;DHT22;1320;48.128;11.592;2023-12-07T17:42:46;2.70;99.90
2621;DHT22;1320;48.128;11.592;2023-12-07T17:45:12;2.60;99.90
2621;DHT22;1320;48.128;11.592;2023-12-07T17:47:37;2.60;99.90
2621;DHT22;1320;48.128;11.592;2023-12-07T17:50:05;2.60;99.90
2621;DHT22;1320;48.128;11.592;2023-12-07T17:52:31;2.60;99.90
2621;DHT22;1320;48.128;11.592;2023-12-07T17:54:56;2.50;99.90
2621;DHT22;1320;48.128;11.592;2023-12-07T17:57:22;2.50;99.90
2621;DHT22;1320;48.128;11.592;2023-12-07T17:59:48;2.40;99.90
2621;DHT22;1320;48.128;11.592;2023-12-07T18:02:13;2.40;99.90
2621;DHT22;1320;48.128;11.592;2023-12-07T18:04:39;2.30;99.90
2621;DHT22;1320;48.128;11.592;2023-12-07T18:07:05;2.30;99.90
2621;DHT22;1320;48.128;11.592;2023-12-07T18:09:30;2.20;99.90
2621;DHT22;1320;48.128;11.592;2023-12-07T18:11:56;2.20;99.90
2621;DHT22;1320;48.128;11.592;2023-12-07T18:14:28;2.10;99.90
2621;DHT22;1320;48.128;11.592;2023-12-07T18:16:54;2.10;99.90
2621;DHT22;1320;48.128;11.592;2023-12-07T18:19:19;2.00;99.90
2621;DHT22;1320;48.128;11.592;2023-12-07T18:21:45;2.00;99.90
2621;DHT22;1320;48.128;11.592;2023-12-07T18:24:11;1.90;99.90
2621;DHT22;1320;48.128;11.592;2023-12-07T18:26:37;1.90;99.90
2621;DHT22;1320;48.128;11.592;2023-12-07T18:29:03;1.80;99.90
2621;DHT22;1320;48.128;11.592;2023-12-07T18:31:30;1.80;99.90
2621;DHT22;1320;48.128;11.592;2023-12-07T18:33:56;1.80;99.90
2621;DHT22;1320;48.128;11.592;2023-12-07T18:36:21;1.70;99.90
2621;DHT22;1320;48.128;11.592;2023-12-07T18:38:47;1.70;99.90
2621;DHT22;1320;48.128;11.592;2023-12-07T18:41:13;1.70;99.90
2621;DHT22;1320;48.128;11.592;2023-12-07T18:43:38;1.60;99.90
2621;DHT22;1320;48.128;11.592;2023-12-07T18:46:04;1.60;99.90
2621;DHT22;1320;48.128;11.592;2023-12-07T18:48:32;1.60;99.90
2621;DHT22;1320;48.128;11.592;2023-12-07T18:50:58;1.60;99.90
2621;DHT22;1320;48.128;11.592;2023-12-07T18:53:25;1.60;99.90
2621;DHT22;1320;48.128;11.592;2023-12-07T18:55:53;1.60;99.90
2621;DHT22;1320;48.128;11.592;2023-12-07T18:58:19;1.60;99.90
2621;DHT22;1320;48.128;11.592;2023-12-07T19:00:47;1.70;99.90
2621;DHT22;1320;48.128;11.592;2023-12-07T19:03:13;1.70;99.90
2621;DHT22;1320;48.128;11.592;2023-12-07T19:05:39;1.70;99.90
2621;DHT22;1320;48.128;11.592;2023-12-07T19:08:04;1.70;99.90
2621;DHT22;1320;48.128;11.592;2023-12-07T19:10:34;1.70;99.90
2621;DHT22;1320;48.128;11.592;2023-12-07T19:13:00;1.70;99.90
2621;DHT22;1320;48.128;11.592;2023-12-07T19:15:25;1.70;99.90
2621;DHT22;1320;48.128;11.592;2023-12-07T19:17:51;1.70;99.90
2621;DHT22;1320;48.128;11.592;2023-12-07T19:20:17;1.60;99.90
2621;DHT22;1320;48.128;11.592;2023-12-07T19:22:42;1.60;99.90
2621;DHT22;1320;48.128;11.592;2023-12-07T19:25:08;1.70;99.90
2621;DHT22;1320;48.128;11.592;2023-12-07T19:27:34;1.70;99.90
2621;DHT22;1320;48.128;11.592;2023-12-07T19:29:59;1.70;99.90
2621;DHT22;1320;48.128;11.592;2023-12-07T19:32:25;1.70;99.90
2621;DHT22;1320;48.128;11.592;2023-12-07T19:34:51;1.70;99.90
2621;DHT22;1320;48.128;11.592;2023-12-07T19:37:16;1.70;99.90
2621;DHT22;1320;48.128;11.592;2023-12-07T19:39:42;1.70;99.90
2621;DHT22;1320;48.128;11.592;2023-12-07T19:42:08;1.70;99.90
2621;DHT22;1320;48.128;11.592;2023-12-07T19:44:33;1.70;99.90
2621;DHT22;1320;48.128;11.592;2023-12-07T19:46:59;1.60;99.90
2621;DHT22;1320;48.128;11.592;2023-12-07T19:49:24;1.60;99.90
2621;DHT22;1320;48.128;11.592;2023-12-07T19:51:50;1.50;99.90
2621;DHT22;1320;48.128;11.592;2023-12-07T19:54:16;1.50;99.90
2621;DHT22;1320;48.128;11.592;2023-12-07T19:56:43;1.40;99.90
2621;DHT22;1320;48.128;11.592;2023-12-07T19:59:09;1.40;99.90
2621;DHT22;1320;48.128;11.592;2023-12-07T20:01:35;1.40;99.90
2621;DHT22;1320;48.128;11.592;2023-12-07T20:04:00;1.40;99.90
2621;DHT22;1320;48.128;11.592;2023-12-07T20:06:27;1.40;99.90
2621;DHT22;1320;48.128;11.592;2023-12-07T20:08:53;1.40;99.90
2621;DHT22;1320;48.128;11.592;2023-12-07T20:11:20;1.40;99.90
2621;DHT22;1320;48.128;11.592;2023-12-07T20:13:45;1.40;99.90
2621;DHT22;1320;48.128;11.592;2023-12-07T20:16:18;1.40;99.90
2621;DHT22;1320;48.128;11.592;2023-12-07T20:18:44;1.40;99.90
2621;DHT22;1320;48.128;11.592;2023-12-07T20:21:10;1.40;99.90
2621;DHT22;1320;48.128;11.592;2023-12-07T20:23:36;1.40;99.90
2621;DHT22;1320;48.128;11.592;2023-12-07T20:26:05;1.40;99.90
2621;DHT22;1320;48.128;11.592;2023-12-07T20:28:31;1.40;99.90
2621;DHT22;1320;48.128;11.592;2023-12-07T20:30:57;1.40;99.90
2621;DHT22;1320;48.128;11.592;2023-12-07T20:33:22;1.50;99.90
2621;DHT22;1320;48.128;11.592;2023-12-07T20:35:48;1.40;99.90
2621;DHT22;1320;48.128;11.592;2023-12-07T20:38:13;1.40;99.90
2621;DHT22;1320;48.128;11.592;2023-12-07T20:40:39;1.40;99.90
2621;DHT22;1320;48.128;11.592;2023-12-07T20:43:05;1.40;99.90
2621;DHT22;1320;48.128;11.592;2023-12-07T20:45:30;1.30;99.90
2621;DHT22;1320;48.128;11.592;2023-12-07T20:47:56;1.20;99.90
2621;DHT22;1320;48.128;11.592;2023-12-07T20:50:22;1.20;99.90
2621;DHT22;1320;48.128;11.592;2023-12-07T20:52:48;1.20;99.90
2621;DHT22;1320;48.128;11.592;2023-12-07T20:55:14;1.10;99.90
2621;DHT22;1320;48.128;11.592;2023-12-07T20:57:43;1.10;99.90
2621;DHT22;1320;48.128;11.592;2023-12-07T21:00:09;1.10;99.90
2621;DHT22;1320;48.128;11.592;2023-12-07T21:02:35;1.00;99.90
2621;DHT22;1320;48.128;11.592;2023-12-07T21:05:01;1.00;99.90
2621;DHT22;1320;48.128;11.592;2023-12-07T21:07:26;1.00;99.90
2621;DHT22;1320;48.128;11.592;2023-12-07T21:09:52;1.10;99.90
2621;DHT22;1320;48.128;11.592;2023-12-07T21:12:18;1.10;99.90
2621;DHT22;1320;48.128;11.592;2023-12-07T21:14:43;1.10;99.90
2621;DHT22;1320;48.128;11.592;2023-12-07T21:17:09;1.10;99.90
2621;DHT22;1320;48.128;11.592;2023-12-07T21:19:39;1.10;99.90
2621;DHT22;1320;48.128;11.592;2023-12-07T21:22:04;1.10;99.90
2621;DHT22;1320;48.128;11.592;2023-12-07T21:24:33;1.10;99.90
2621;DHT22;1320;48.128;11.592;2023-12-07T21:26:59;1.10;99.90
2621;DHT22;1320;48.128;11.592;2023-12-07T21:29:24;1.10;99.90
2621;DHT22;1320;48.128;11.592;2023-12-07T21:31:50;1.10;99.90
2621;DHT22;1320;48.128;11.592;2023-12-07T21:34:16;1.10;99.90
2621;DHT22;1320;48.128;11.592;2023-12-07T21:36:43;1.10;99.90
2621;DHT22;1320;48.128;11.592;2023-12-07T21:39:09;1.20;99.90
2621;DHT22;1320;48.128;11.592;2023-12-07T21:41:35;1.10;99.90
2621;DHT22;1320;48.128;11.592;2023-12-07T21:44:01;1.10;99.90
2621;DHT22;1320;48.128;11.592;2023-12-07T21:46:26;1.10;99.90
2621;DHT22;1320;48.128;11.592;2023-12-07T21:48:52;1.10;99.90
2621;DHT22;1320;48.128;11.592;2023-12-07T21:51:18;1.10;99.90
2621;DHT22;1320;48.128;11.592;2023-12-07T21:53:43;1.00;99.90
2621;DHT22;1320;48.128;11.592;2023-12-07T21:56:11;1.00;99.90
2621;DHT22;1320;48.128;11.592;2023-12-07T21:58:37;1.00;99.90
2621;DHT22;1320;48.128;11.592;2023-12-07T22:01:03;0.90;99.90
2621;DHT22;1320;48.128;11.592;2023-12-07T22:03:29;0.90;99.90
2621;DHT22;1320;48.128;11.592;2023-12-07T22:05:54;0.80;99.90
2621;DHT22;1320;48.128;11.592;2023-12-07T22:08:20;0.80;99.90
2621;DHT22;1320;48.128;11.592;2023-12-07T22:13:12;0.70;99.90
2621;DHT22;1320;48.128;11.592;2023-12-07T22:15:37;0.70;99.90
2621;DHT22;1320;48.128;11.592;2023-12-07T22:18:03;0.60;99.90
2621;DHT22;1320;48.128;11.592;2023-12-07T22:20:29;0.60;99.90
2621;DHT22;1320;48.128;11.592;2023-12-07T22:25:21;0.60;99.90
2621;DHT22;1320;48.128;11.592;2023-12-07T22:27:47;0.50;99.90
2621;DHT22;1320;48.128;11.592;2023-12-07T22:30:14;0.50;99.90
2621;DHT22;1320;48.128;11.592;2023-12-07T22:32:42;0.50;99.90
2621;DHT22;1320;48.128;11.592;2023-12-07T22:35:08;0.50;99.90
2621;DHT22;1320;48.128;11.592;2023-12-07T22:37:34;0.50;99.90
2621;DHT22;1320;48.128;11.592;2023-12-07T22:40:04;0.50;99.90
2621;DHT22;1320;48.128;11.592;2023-12-07T22:42:30;0.50;99.90
2621;DHT22;1320;48.128;11.592;2023-12-07T22:44:55;0.40;99.90
2621;DHT22;1320;48.128;11.592;2023-12-07T22:47:22;0.40;99.90
2621;DHT22;1320;48.128;11.592;2023-12-07T22:49:48;0.40;99.90
2621;DHT22;1320;48.128;11.592;2023-12-07T22:57:05;0.30;99.90
2621;DHT22;1320;48.128;11.592;2023-12-07T23:01:57;0.20;99.90
2621;DHT22;1320;48.128;11.592;2023-12-07T23:04:23;0.20;99.90
2621;DHT22;1320;48.128;11.592;2023-12-07T23:06:48;0.10;99.90
2621;DHT22;1320;48.128;11.592;2023-12-07T23:09:14;0.10;99.90
2621;DHT22;1320;48.128;11.592;2023-12-07T23:14:06;0.00;99.90
2621;DHT22;1320;48.128;11.592;2023-12-07T23:16:32;0.00;99.90
2621;DHT22;1320;48.128;11.592;2023-12-07T23:18:57;0.00;99.90
2621;DHT22;1320;48.128;11.592;2023-12-07T23:21:23;0.00;99.90
2621;DHT22;1320;48.128;11.592;2023-12-07T23:23:49;0.00;99.90
2621;DHT22;1320;48.128;11.592;2023-12-07T23:26:14;-0.10;99.90
2621;DHT22;1320;48.128;11.592;2023-12-07T23:28:41;-0.10;99.90
2621;DHT22;1320;48.128;11.592;2023-12-07T23:31:07;-0.10;99.90
2621;DHT22;1320;48.128;11.592;2023-12-07T23:33:33;-0.10;99.90
2621;DHT22;1320;48.128;11.592;2023-12-07T23:35:58;-0.10;99.90
2621;DHT22;1320;48.128;11.592;2023-12-07T23:38:24;-0.10;99.90
2621;DHT22;1320;48.128;11.592;2023-12-07T23:40:50;-0.10;99.90
2621;DHT22;1320;48.128;11.592;2023-12-07T23:45:42;0.00;99.90
2621;DHT22;1320;48.128;11.592;2023-12-07T23:48:08;0.00;99.90
2621;DHT22;1320;48.128;11.592;2023-12-07T23:50:34;0.00;99.90
2621;DHT22;1320;48.128;11.592;2023-12-07T23:53:01;0.00;99.90
2621;DHT22;1320;48.128;11.592;2023-12-07T23:55:27;0.00;99.90
2621;DHT22;1320;48.128;11.592;2023-12-07T23:57:52;0.00;99.90
